createdAt,value
2019-04-05T00:00:38.753Z,9.03
2019-04-05T00:03:09.135Z,9.37
2019-04-05T00:05:39.551Z,9.87
2019-04-05T00:08:09.982Z,7.13
2019-04-05T00:10:42.603Z,8.43
2019-04-05T00:13:12.403Z,10.83
2019-04-05T00:15:43.737Z,9.87
2019-04-05T00:18:22.272Z,9.40
2019-04-05T00:20:53.730Z,9.63
2019-04-05T00:23:23.089Z,9.10
2019-04-05T00:25:53.682Z,8.90
2019-04-05T00:28:30.362Z,9.83
2019-04-05T00:30:59.856Z,7.83
2019-04-05T00:33:29.025Z,8.17
2019-04-05T00:35:59.183Z,9.53
2019-04-05T00:38:36.408Z,7.90
2019-04-05T00:41:06.856Z,9.00
2019-04-05T00:43:36.064Z,9.70
2019-04-05T00:46:16.026Z,10.73
2019-04-05T00:48:45.114Z,10.03
2019-04-05T00:51:16.274Z,10.53
2019-04-05T00:53:45.463Z,9.83
2019-04-05T00:56:19.971Z,9.60
2019-04-05T00:58:50.730Z,9.37
2019-04-05T01:01:28.511Z,11.67
2019-04-05T01:04:00.675Z,11.70
2019-04-05T01:06:35.855Z,9.63
2019-04-05T01:09:12.815Z,10.07
2019-04-05T01:11:42.451Z,11.73
2019-04-05T01:14:11.883Z,9.90
2019-04-05T01:16:43.676Z,12.13
2019-04-05T01:19:20.022Z,11.57
2019-04-05T01:21:52.003Z,10.23
2019-04-05T01:24:34.784Z,9.80
2019-04-05T01:27:12.121Z,11.83
2019-04-05T01:29:44.524Z,10.90
2019-04-05T01:32:13.783Z,11.37
2019-04-05T01:34:48.165Z,11.13
2019-04-05T01:37:30.691Z,12.33
2019-04-05T01:40:06.426Z,10.50
2019-04-05T01:42:44.975Z,11.37
2019-04-05T01:45:29.252Z,10.73
2019-04-05T01:47:58.448Z,10.27
2019-04-05T01:50:45.211Z,11.23
2019-04-05T01:53:16.299Z,11.33
2019-04-05T01:55:45.775Z,13.57
2019-04-05T01:58:15.938Z,13.53
2019-04-05T02:00:54.326Z,11.50
2019-04-05T02:03:25.715Z,11.70
2019-04-05T02:05:54.878Z,12.50
2019-04-05T02:08:23.979Z,11.90
2019-04-05T02:11:09.477Z,13.80
2019-04-05T02:13:38.763Z,12.33
2019-04-05T02:16:17.299Z,12.60
2019-04-05T02:18:46.478Z,12.17
2019-04-05T02:21:16.067Z,12.73
2019-04-05T02:23:47.399Z,12.23
2019-04-05T02:26:21.832Z,13.37
2019-04-05T02:28:57.347Z,12.30
2019-04-05T02:31:28.463Z,15.07
2019-04-05T02:34:04.560Z,14.20
2019-04-05T02:36:39.848Z,13.00
2019-04-05T02:39:15.797Z,14.73
2019-04-05T02:41:45.228Z,13.47
2019-04-05T02:44:15.507Z,13.03
2019-04-05T02:46:47.862Z,14.93
2019-04-05T02:49:18.245Z,15.17
2019-04-05T02:51:49.256Z,16.33
2019-04-05T02:54:19.676Z,15.90
2019-04-05T02:56:51.340Z,13.40
2019-04-05T02:59:26.890Z,14.17
2019-04-05T03:01:56.900Z,13.87
2019-04-05T03:04:32.150Z,14.10
2019-04-05T03:07:01.749Z,13.53
2019-04-05T03:09:31.973Z,14.47
2019-04-05T03:12:15.092Z,14.70
2019-04-05T03:21:04.851Z,13.97
2019-04-05T03:27:27.446Z,14.03
2019-04-05T03:33:38.094Z,15.40
2019-04-05T03:39:48.652Z,15.03
2019-04-05T03:43:11.638Z,14.70
2019-04-05T03:49:21.717Z,17.40
2019-04-05T03:52:44.827Z,14.20
2019-04-05T03:58:55.672Z,17.67
2019-04-05T04:02:18.691Z,16.33
2019-04-05T04:08:29.703Z,15.13
2019-04-05T04:14:40.635Z,15.33
2019-04-05T04:17:16.093Z,15.90
2019-04-05T04:19:51.947Z,15.80
2019-04-05T04:22:37.090Z,16.53
2019-04-05T04:25:15.276Z,16.67
2019-04-05T04:27:45.196Z,15.83
2019-04-05T04:30:16.315Z,18.23
2019-04-05T04:32:47.553Z,17.17
2019-04-05T04:35:16.814Z,16.87
2019-04-05T04:37:53.929Z,19.50
2019-04-05T04:40:23.467Z,17.57
2019-04-05T04:43:04.926Z,18.27
2019-04-05T04:45:35.216Z,18.77
2019-04-05T04:48:10.797Z,18.17
2019-04-05T04:50:41.059Z,16.20
2019-04-05T04:53:17.560Z,18.20
2019-04-05T04:55:52.980Z,17.47
2019-04-05T04:58:40.641Z,17.90
2019-04-05T05:01:16.606Z,17.93
2019-04-05T05:03:45.927Z,19.27
2019-04-05T05:06:15.077Z,18.07
2019-04-05T05:08:44.921Z,18.97
2019-04-05T05:11:16.085Z,19.33
2019-04-05T05:13:45.958Z,22.20
2019-04-05T05:16:15.175Z,19.33
2019-04-05T05:18:45.533Z,20.57
2019-04-05T05:21:15.020Z,19.10
2019-04-05T05:23:44.937Z,19.10
2019-04-05T05:26:20.639Z,19.97
2019-04-05T05:28:50.838Z,21.00
2019-04-05T05:31:30.347Z,17.33
2019-04-05T05:33:59.730Z,20.87
2019-04-05T05:36:34.113Z,18.13
2019-04-05T05:39:08.597Z,18.70
2019-04-05T05:41:37.764Z,20.10
2019-04-05T05:44:16.416Z,22.00
2019-04-05T05:46:49.262Z,18.77
2019-04-05T05:49:27.415Z,20.07
2019-04-05T05:51:57.585Z,21.03
2019-04-05T05:54:27.082Z,17.83
2019-04-05T05:57:08.202Z,18.93
2019-04-05T05:59:38.340Z,18.13
2019-04-05T06:02:08.201Z,18.70
2019-04-05T06:04:39.638Z,22.43
2019-04-05T06:07:14.945Z,20.10
2019-04-05T06:09:44.116Z,17.33
2019-04-05T06:12:15.615Z,17.97
2019-04-05T06:14:44.738Z,16.73
2019-04-05T06:17:13.835Z,19.07
2019-04-05T06:19:49.825Z,19.63
2019-04-05T06:22:19.095Z,17.37
2019-04-05T06:24:54.236Z,17.20
2019-04-05T06:27:24.748Z,18.27
2019-04-05T06:29:54.887Z,19.00
2019-04-05T06:32:28.263Z,16.03
2019-04-05T06:35:19.338Z,19.03
2019-04-05T06:37:48.505Z,17.57
2019-04-05T06:40:22.901Z,15.90
2019-04-05T06:42:58.177Z,17.03
2019-04-05T06:45:37.372Z,16.20
2019-04-05T06:48:18.537Z,17.63
2019-04-05T06:50:53.605Z,16.10
2019-04-05T06:53:44.882Z,15.23
2019-04-05T06:56:14.065Z,14.30
2019-04-05T06:58:46.219Z,15.27
2019-04-05T07:01:15.187Z,16.07
2019-04-05T07:03:44.279Z,14.47
2019-04-05T07:06:13.382Z,17.27
2019-04-05T07:08:53.149Z,17.47
2019-04-05T07:11:13.866Z,14.97
2019-04-05T07:13:43.029Z,16.97
2019-04-05T07:16:22.159Z,16.83
2019-04-05T07:19:01.219Z,15.37
2019-04-05T07:21:30.379Z,15.73
2019-04-05T07:24:05.342Z,17.37
2019-04-05T07:26:34.559Z,17.73
2019-04-05T07:29:03.793Z,14.33
2019-04-05T07:31:33.214Z,17.37
2019-04-05T07:34:05.086Z,15.43
2019-04-05T07:36:34.174Z,16.40
2019-04-05T07:39:04.185Z,15.73
2019-04-05T07:41:36.446Z,16.20
2019-04-05T07:44:06.642Z,15.90
2019-04-05T07:46:46.355Z,16.43
2019-04-05T07:49:14.486Z,14.77
2019-04-05T07:51:46.945Z,15.37
2019-04-05T07:54:17.376Z,14.33
2019-04-05T07:56:46.530Z,14.83
2019-04-05T07:59:20.752Z,15.40
2019-04-05T08:01:56.040Z,13.60
2019-04-05T08:04:31.393Z,14.93
2019-04-05T08:07:03.630Z,16.27
2019-04-05T08:09:38.583Z,17.53
2019-04-05T08:12:11.859Z,24.70
2019-04-05T08:14:47.138Z,18.67
2019-04-05T08:17:16.319Z,23.47
2019-04-05T08:19:55.871Z,16.70
2019-04-05T08:22:55.666Z,23.87
2019-04-05T08:25:27.876Z,16.83
2019-04-05T08:28:03.375Z,16.57
2019-04-05T08:30:39.054Z,16.13
2019-04-05T08:33:22.501Z,19.77
2019-04-05T08:35:54.036Z,16.23
2019-04-05T08:38:23.511Z,16.37
2019-04-05T08:40:52.685Z,17.20
2019-04-05T08:43:21.880Z,14.33
2019-04-05T08:45:51.327Z,15.80
2019-04-05T08:48:26.880Z,16.63
2019-04-05T08:51:02.576Z,16.27
2019-04-05T08:53:31.754Z,14.73
2019-04-05T08:56:02.055Z,14.40
2019-04-05T08:58:43.547Z,18.17
2019-04-05T09:01:13.059Z,15.87
2019-04-05T09:03:43.176Z,16.67
2019-04-05T09:06:25.367Z,17.83
2019-04-05T09:09:06.140Z,16.53
2019-04-05T09:11:37.130Z,24.70
2019-04-05T09:14:15.226Z,20.10
2019-04-05T09:16:45.321Z,24.67
2019-04-05T09:19:23.521Z,20.27
2019-04-05T09:21:51.790Z,17.63
2019-04-05T09:24:20.977Z,17.77
2019-04-05T09:26:50.505Z,18.03
2019-04-05T09:29:23.493Z,18.10
2019-04-05T09:31:54.812Z,17.87
2019-04-05T09:34:24.971Z,26.80
2019-04-05T09:37:01.171Z,24.53
2019-04-05T09:39:35.369Z,20.00
2019-04-05T09:42:05.038Z,18.43
2019-04-05T09:44:40.714Z,20.43
2019-04-05T09:47:30.681Z,19.93
2019-04-05T09:50:04.541Z,25.10
2019-04-05T09:52:43.156Z,18.53
2019-04-05T09:55:12.335Z,26.33
2019-04-05T09:57:41.536Z,27.70
2019-04-05T10:00:27.839Z,22.40
2019-04-05T10:02:57.294Z,22.13
2019-04-05T10:05:28.767Z,20.70
2019-04-05T10:07:59.353Z,25.13
2019-04-05T10:10:28.878Z,25.03
2019-04-05T10:13:09.757Z,30.60
2019-04-05T10:15:38.393Z,26.13
2019-04-05T10:18:08.343Z,26.27
2019-04-05T10:20:39.030Z,22.07
2019-04-05T10:23:08.315Z,28.63
2019-04-05T10:25:46.508Z,22.77
2019-04-05T10:28:17.650Z,26.37
2019-04-05T10:30:57.115Z,21.20
2019-04-05T10:33:34.446Z,26.43
2019-04-05T10:36:10.539Z,18.63
2019-04-05T10:38:43.947Z,20.27
2019-04-05T10:41:23.045Z,25.00
2019-04-05T10:43:51.720Z,25.03
2019-04-05T10:46:23.942Z,22.03
2019-04-05T10:49:02.264Z,25.23
2019-04-05T10:51:31.463Z,21.03
2019-04-05T10:54:10.764Z,28.27
2019-04-05T10:56:51.247Z,26.00
2019-04-05T10:59:20.318Z,27.57
2019-04-05T11:01:49.456Z,26.40
2019-04-05T11:04:19.117Z,28.33
2019-04-05T11:06:59.520Z,25.17
2019-04-05T11:09:34.902Z,22.20
2019-04-05T11:12:11.835Z,19.87
2019-04-05T11:14:42.363Z,22.13
2019-04-05T11:17:17.614Z,20.47
2019-04-05T11:19:46.974Z,24.33
2019-04-05T11:22:31.683Z,26.17
2019-04-05T11:25:00.848Z,22.40
2019-04-05T11:27:31.930Z,22.33
2019-04-05T11:30:01.906Z,18.63
2019-04-05T11:32:32.330Z,19.53
2019-04-05T11:35:19.763Z,17.60
2019-04-05T11:37:54.099Z,18.07
2019-04-05T11:40:30.116Z,19.33
2019-04-05T11:43:04.654Z,21.83
2019-04-05T11:45:35.223Z,20.10
2019-04-05T11:48:10.904Z,21.07
2019-04-05T11:51:03.015Z,19.97
2019-04-05T11:53:32.645Z,19.27
2019-04-05T11:56:15.039Z,16.30
2019-04-05T11:58:49.742Z,16.17
2019-04-05T12:01:23.792Z,15.60
2019-04-05T12:04:11.772Z,18.83
2019-04-05T12:06:53.453Z,25.63
2019-04-05T12:09:22.550Z,30.57
2019-04-05T12:11:53.711Z,21.60
2019-04-05T12:14:30.421Z,18.57
2019-04-05T12:17:05.654Z,16.93
2019-04-05T12:19:43.896Z,16.87
2019-04-05T12:22:13.951Z,18.80
2019-04-05T12:24:51.534Z,15.93
2019-04-05T12:27:26.623Z,18.23
2019-04-05T12:29:56.587Z,20.23
2019-04-05T12:32:34.491Z,18.03
2019-04-05T12:35:09.822Z,18.57
2019-04-05T12:37:50.172Z,18.87
2019-04-05T12:40:18.181Z,17.00
2019-04-05T12:42:53.000Z,19.43
2019-04-05T12:45:23.642Z,16.87
2019-04-05T12:47:54.372Z,16.47
2019-04-05T12:50:30.935Z,23.00
2019-04-05T12:53:08.318Z,19.87
2019-04-05T12:55:37.977Z,17.13
2019-04-05T12:58:25.528Z,18.60
2019-04-05T13:00:56.301Z,19.13
2019-04-05T13:03:25.727Z,19.60
2019-04-05T13:06:01.578Z,18.80
2019-04-05T13:08:36.431Z,19.20
2019-04-05T13:11:05.667Z,18.67
2019-04-05T13:13:41.950Z,20.50
2019-04-05T13:16:11.130Z,20.43
2019-04-05T13:18:41.035Z,15.23
2019-04-05T13:21:20.431Z,16.13
2019-04-05T13:23:51.129Z,13.93
2019-04-05T13:26:26.600Z,16.50
2019-04-05T13:28:56.144Z,19.13
2019-04-05T13:31:38.632Z,17.17
2019-04-05T13:34:07.858Z,18.87
2019-04-05T13:36:39.459Z,17.33
2019-04-05T13:39:10.195Z,17.70
2019-04-05T13:41:40.924Z,18.17
2019-04-05T13:44:12.395Z,18.57
2019-04-05T13:46:42.860Z,17.63
2019-04-05T13:49:15.199Z,19.90
2019-04-05T13:51:44.937Z,19.87
2019-04-05T13:54:14.118Z,19.23
2019-04-05T13:56:44.074Z,17.13
2019-04-05T13:59:13.903Z,18.53
2019-04-05T14:01:44.032Z,15.13
2019-04-05T14:04:13.534Z,21.60
2019-04-05T14:06:44.712Z,19.37
2019-04-05T14:09:15.664Z,13.63
2019-04-05T14:11:45.657Z,17.37
2019-04-05T14:14:15.209Z,16.70
2019-04-05T14:16:47.496Z,20.43
2019-04-05T14:19:20.101Z,16.23
2019-04-05T14:21:53.764Z,15.53
2019-04-05T14:24:27.806Z,16.83
2019-04-05T14:27:02.737Z,18.33
2019-04-05T14:29:33.151Z,17.73
2019-04-05T14:32:21.268Z,15.17
2019-04-05T14:34:54.013Z,16.73
2019-04-05T14:37:25.022Z,17.10
2019-04-05T14:39:57.475Z,18.37
2019-04-05T14:42:29.689Z,14.10
2019-04-05T14:45:00.916Z,13.50
2019-04-05T14:47:32.078Z,15.97
2019-04-05T14:50:03.922Z,18.37
2019-04-05T14:52:39.967Z,16.37
2019-04-05T14:55:15.660Z,21.43
2019-04-05T14:57:51.461Z,18.50
2019-04-05T15:00:28.292Z,19.00
2019-04-05T15:02:59.411Z,19.67
2019-04-05T15:05:28.667Z,19.50
2019-04-05T15:08:02.611Z,16.90
2019-04-05T15:10:32.116Z,16.90
2019-04-05T15:13:02.574Z,16.03
2019-04-05T15:15:36.462Z,16.00
2019-04-05T15:18:06.564Z,12.97
2019-04-05T15:20:39.113Z,16.10
2019-04-05T15:23:14.798Z,18.43
2019-04-05T15:25:49.545Z,20.80
2019-04-05T15:28:17.620Z,18.27
2019-04-05T15:30:49.560Z,21.27
2019-04-05T15:33:19.485Z,15.60
2019-04-05T15:35:58.045Z,21.87
2019-04-05T15:38:27.275Z,23.67
2019-04-05T15:40:56.427Z,20.37
2019-04-05T15:43:25.908Z,18.03
2019-04-05T15:45:57.084Z,19.10
2019-04-05T15:48:28.205Z,19.53
2019-04-05T15:51:03.347Z,17.73
2019-04-05T15:53:38.067Z,19.70
2019-04-05T15:56:07.562Z,16.80
2019-04-05T15:58:45.105Z,13.93
2019-04-05T16:01:20.676Z,13.30
2019-04-05T16:03:49.807Z,14.50
2019-04-05T16:06:19.327Z,18.13
2019-04-05T16:09:02.780Z,15.33
2019-04-05T16:11:38.471Z,18.60
2019-04-05T16:14:18.928Z,17.80
2019-04-05T16:16:49.475Z,12.60
2019-04-05T16:19:25.017Z,50.47
2019-04-05T16:22:02.446Z,21.77
2019-04-05T16:24:32.271Z,17.50
2019-04-05T16:27:03.819Z,18.93
2019-04-05T16:29:35.414Z,18.57
2019-04-05T16:32:04.572Z,17.23
2019-04-05T16:34:33.811Z,15.27
2019-04-05T16:37:04.142Z,15.40
2019-04-05T16:39:34.302Z,17.30
2019-04-05T16:42:22.643Z,15.57
2019-04-05T16:44:54.674Z,13.33
2019-04-05T16:47:27.335Z,14.77
2019-04-05T16:49:57.490Z,11.97
2019-04-05T16:52:26.655Z,10.70
2019-04-05T16:55:05.705Z,10.70
2019-04-05T16:57:36.034Z,17.80
2019-04-05T17:00:13.710Z,15.70
2019-04-05T17:02:51.747Z,13.23
2019-04-05T17:05:21.870Z,12.10
2019-04-05T17:07:51.252Z,12.10
2019-04-05T17:10:32.504Z,13.73
2019-04-05T17:13:06.831Z,11.73
2019-04-05T17:15:38.286Z,10.83
2019-04-05T17:18:17.156Z,10.57
2019-04-05T17:20:46.286Z,10.67
2019-04-05T17:23:16.389Z,11.20
2019-04-05T17:25:45.458Z,10.80
2019-04-05T17:28:16.643Z,10.33
2019-04-05T17:30:58.924Z,10.63
2019-04-05T17:33:35.108Z,10.23
2019-04-05T17:36:04.954Z,9.17
2019-04-05T17:38:35.112Z,9.57
2019-04-05T17:41:04.249Z,10.33
2019-04-05T17:43:33.796Z,10.00
2019-04-05T17:46:11.118Z,13.37
2019-04-05T17:48:40.845Z,11.03
2019-04-05T17:51:10.626Z,14.30
2019-04-05T17:53:40.787Z,12.13
2019-04-05T17:56:16.808Z,11.60
2019-04-05T17:58:49.637Z,11.30
2019-04-05T18:01:38.638Z,12.50
2019-04-05T18:04:07.691Z,11.43
2019-04-05T18:06:41.902Z,11.27
2019-04-05T18:09:11.068Z,12.73
2019-04-05T18:11:41.211Z,11.43
2019-04-05T18:14:10.372Z,10.60
2019-04-05T18:16:42.636Z,11.90
2019-04-05T18:19:19.140Z,10.93
2019-04-05T18:21:48.386Z,11.37
2019-04-05T18:24:21.071Z,12.93
2019-04-05T18:26:51.619Z,11.07
2019-04-05T18:29:20.746Z,11.83
2019-04-05T18:31:50.355Z,12.53
2019-04-05T18:34:20.324Z,11.37
2019-04-05T18:36:49.554Z,12.07
2019-04-05T18:39:19.093Z,10.17
2019-04-05T18:41:48.309Z,11.90
2019-04-05T18:44:17.858Z,11.47
2019-04-05T18:46:46.996Z,11.00
2019-04-05T18:49:16.655Z,11.67
2019-04-05T18:51:46.093Z,11.83
2019-04-05T18:54:35.459Z,12.60
2019-04-05T18:57:04.704Z,12.90
2019-04-05T18:59:35.260Z,11.27
2019-04-05T19:02:05.444Z,12.03
2019-04-05T19:04:37.249Z,15.03
2019-04-05T19:07:13.548Z,13.13
2019-04-05T19:09:42.736Z,12.00
2019-04-05T19:12:12.455Z,12.63
2019-04-05T19:14:42.220Z,11.63
2019-04-05T19:17:23.698Z,13.20
2019-04-05T19:19:46.015Z,17.73
2019-04-05T19:22:17.122Z,16.70
2019-04-05T19:24:46.610Z,13.07
2019-04-05T19:27:19.115Z,12.57
2019-04-05T19:29:48.761Z,12.37
2019-04-05T19:50:22.967Z,12.50
2019-04-05T19:52:52.938Z,13.00
2019-04-05T19:55:32.887Z,13.90
2019-04-05T19:58:02.989Z,12.83
2019-04-05T20:00:34.370Z,14.80
2019-04-05T20:03:06.284Z,14.00
2019-04-05T20:05:39.879Z,13.03
2019-04-05T20:08:10.767Z,14.87
2019-04-05T20:10:44.367Z,15.40
2019-04-05T20:13:19.534Z,14.70
2019-04-05T20:15:48.743Z,14.43
2019-04-05T20:18:18.290Z,14.80
2019-04-05T20:20:51.692Z,14.10
2019-04-05T20:23:20.846Z,14.47
2019-04-05T20:25:50.794Z,13.80
2019-04-05T20:28:20.197Z,14.30
2019-04-05T20:30:53.623Z,14.60
2019-04-05T20:33:26.099Z,18.00
2019-04-05T20:35:57.799Z,17.43
2019-04-05T20:38:27.763Z,17.47
2019-04-05T20:41:00.447Z,16.20
2019-04-05T20:43:30.049Z,15.40
2019-04-05T20:46:01.300Z,15.33
2019-04-05T20:48:31.130Z,14.80
2019-04-05T20:51:00.319Z,16.17
2019-04-05T20:53:39.240Z,16.90
2019-04-05T20:56:10.580Z,14.97
2019-04-05T20:58:39.978Z,14.20
2019-04-05T21:01:15.891Z,15.77
2019-04-05T21:03:45.882Z,15.27
2019-04-05T21:06:17.276Z,14.53
2019-04-05T21:08:48.832Z,15.77
2019-04-05T21:11:20.319Z,16.37
2019-04-05T21:13:50.484Z,14.53
2019-04-05T21:16:20.380Z,15.87
2019-04-05T21:18:49.866Z,14.93
2019-04-05T21:21:20.411Z,14.67
2019-04-05T21:23:49.627Z,14.90
2019-04-05T21:26:18.791Z,15.63
2019-04-05T21:28:48.237Z,19.60
2019-04-05T21:31:17.967Z,14.80
2019-04-05T21:33:47.181Z,13.87
2019-04-05T21:36:17.113Z,16.10
2019-04-05T21:38:46.235Z,16.20
2019-04-05T21:41:17.679Z,15.97
2019-04-05T21:43:47.412Z,16.70
2019-04-05T21:46:16.680Z,16.33
2019-04-05T21:48:53.592Z,16.50
2019-04-05T21:51:24.651Z,17.10
2019-04-05T21:53:53.643Z,18.13
2019-04-05T21:56:23.811Z,16.40
2019-04-05T21:58:56.483Z,15.77
2019-04-05T22:01:27.946Z,15.60
2019-04-05T22:04:02.971Z,15.90
2019-04-05T22:06:34.245Z,16.07
2019-04-05T22:09:06.711Z,15.87
2019-04-05T22:11:36.494Z,15.77
2019-04-05T22:14:06.301Z,15.83
2019-04-05T22:16:39.139Z,15.43
2019-04-05T22:19:09.144Z,15.83
2019-04-05T22:21:43.486Z,14.33
2019-04-05T22:24:14.959Z,14.70
2019-04-05T22:26:45.103Z,15.00
2019-04-05T22:29:20.492Z,14.73
2019-04-05T22:31:58.128Z,16.10
2019-04-05T22:34:28.287Z,14.27
2019-04-05T22:37:04.843Z,17.67
2019-04-05T22:39:34.083Z,17.03
2019-04-05T22:42:11.120Z,15.07
2019-04-05T22:44:41.725Z,15.07
2019-04-05T22:47:17.810Z,16.63
2019-04-05T22:49:56.274Z,16.07
2019-04-05T22:52:34.626Z,14.90
2019-04-05T22:55:11.224Z,15.73
2019-04-05T22:57:35.773Z,15.27
2019-04-05T23:00:12.474Z,14.03
2019-04-05T23:02:43.229Z,18.40
2019-04-05T23:05:22.974Z,16.57
2019-04-05T23:08:03.313Z,16.53
2019-04-05T23:10:37.180Z,17.10
2019-04-05T23:13:12.170Z,15.50
2019-04-05T23:16:00.846Z,15.83
2019-04-05T23:18:30.072Z,16.93
2019-04-05T23:21:05.153Z,15.63
2019-04-05T23:23:40.394Z,14.73
2019-04-05T23:26:16.164Z,15.23
2019-04-05T23:28:45.793Z,16.27
2019-04-05T23:31:18.535Z,15.37
2019-04-05T23:33:47.743Z,15.40
2019-04-05T23:36:23.993Z,15.67
2019-04-05T23:39:12.006Z,16.83
2019-04-05T23:41:51.772Z,16.47
2019-04-05T23:44:25.279Z,16.93
2019-04-05T23:46:57.244Z,14.57
2019-04-05T23:49:26.354Z,14.93
2019-04-05T23:51:55.943Z,14.60
2019-04-05T23:54:25.083Z,14.23
2019-04-05T23:56:54.625Z,14.73
2019-04-05T23:59:24.819Z,16.47
